createdAt,value
2018-09-05T00:01:32.261Z,96.03
2018-09-05T00:04:02.010Z,95.77
2018-09-05T00:06:31.946Z,95.84
2018-09-05T00:09:02.142Z,95.86
2018-09-05T00:11:31.932Z,95.05
2018-09-05T00:14:01.664Z,95.64
2018-09-05T00:16:31.421Z,95.08
2018-09-05T00:19:01.229Z,95.37
2018-09-05T00:21:31.142Z,95.42
2018-09-05T00:24:01.071Z,95.77
2018-09-05T00:26:30.797Z,96.37
2018-09-05T00:29:00.414Z,96.50
2018-09-05T00:31:30.211Z,95.88
2018-09-05T00:34:00.088Z,96.68
2018-09-05T00:36:30.029Z,96.64
2018-09-05T00:38:59.927Z,96.31
2018-09-05T00:41:30.651Z,96.81
2018-09-05T00:44:00.393Z,96.33
2018-09-05T00:46:30.468Z,96.25
2018-09-05T00:49:00.001Z,96.96
2018-09-05T00:51:29.675Z,95.67
2018-09-05T00:53:59.434Z,96.29
2018-09-05T00:56:29.273Z,95.62
2018-09-05T00:58:58.946Z,96.05
2018-09-05T01:01:29.714Z,96.18
2018-09-05T01:03:59.654Z,96.22
2018-09-05T01:06:29.842Z,96.95
2018-09-05T01:08:59.729Z,96.36
2018-09-05T01:11:30.490Z,96.58
2018-09-05T01:14:00.253Z,96.46
2018-09-05T01:16:30.173Z,96.46
2018-09-05T01:18:59.872Z,97.19
2018-09-05T01:21:29.781Z,97.47
2018-09-05T01:23:59.752Z,97.65
2018-09-05T01:26:29.587Z,96.57
2018-09-05T01:28:59.383Z,96.62
2018-09-05T01:31:29.339Z,97.59
2018-09-05T01:33:59.223Z,96.55
2018-09-05T01:36:29.173Z,96.62
2018-09-05T01:38:58.813Z,97.45
2018-09-05T01:41:28.727Z,97.17
2018-09-05T01:43:58.465Z,97.33
2018-09-05T01:46:28.277Z,96.75
2018-09-05T01:48:58.008Z,96.51
2018-09-05T01:51:27.839Z,97.00
2018-09-05T01:53:57.389Z,96.30
2018-09-05T01:56:27.056Z,96.82
2018-09-05T01:58:56.749Z,96.09
2018-09-05T02:01:26.480Z,96.45
2018-09-05T02:03:56.259Z,96.28
2018-09-05T02:06:26.034Z,97.12
2018-09-05T02:08:55.528Z,97.12
2018-09-05T02:11:25.529Z,96.42
2018-09-05T02:13:55.136Z,96.82
2018-09-05T02:16:25.062Z,96.60
2018-09-05T02:18:54.487Z,96.27
2018-09-05T02:21:24.341Z,97.24
2018-09-05T02:23:53.795Z,96.46
2018-09-05T02:26:23.432Z,96.63
2018-09-05T02:28:53.477Z,97.34
2018-09-05T02:31:22.971Z,96.65
2018-09-05T02:33:52.743Z,97.32
2018-09-05T02:36:22.335Z,96.57
2018-09-05T02:38:52.892Z,96.57
2018-09-05T02:41:22.488Z,97.05
2018-09-05T02:43:57.005Z,97.19
2018-09-05T02:46:26.627Z,97.04
2018-09-05T02:48:56.415Z,97.12
2018-09-05T02:51:26.138Z,96.83
2018-09-05T02:53:56.038Z,97.25
2018-09-05T02:56:25.917Z,97.40
2018-09-05T02:58:55.874Z,97.12
2018-09-05T03:01:25.836Z,96.62
2018-09-05T03:03:55.610Z,96.87
2018-09-05T03:06:25.557Z,97.15
2018-09-05T03:08:55.177Z,97.11
2018-09-05T03:11:24.893Z,97.03
2018-09-05T03:13:54.320Z,97.84
2018-09-05T03:16:24.067Z,97.38
2018-09-05T03:18:53.730Z,97.16
2018-09-05T03:21:23.595Z,97.63
2018-09-05T03:23:53.386Z,96.95
2018-09-05T03:26:24.349Z,96.95
2018-09-05T03:28:53.916Z,96.71
2018-09-05T03:31:25.196Z,97.06
2018-09-05T03:33:54.759Z,97.23
2018-09-05T03:36:25.733Z,96.75
2018-09-05T03:38:55.431Z,96.83
2018-09-05T03:41:25.207Z,97.23
2018-09-05T03:43:54.933Z,96.87
2018-09-05T03:46:24.435Z,97.39
2018-09-05T03:48:54.324Z,97.59
2018-09-05T03:51:23.919Z,97.30
2018-09-05T03:53:54.528Z,97.56
2018-09-05T03:56:24.333Z,96.71
2018-09-05T03:58:54.551Z,96.70
2018-09-05T04:01:24.255Z,97.33
2018-09-05T04:03:54.169Z,97.45
2018-09-05T04:06:23.838Z,97.11
2018-09-05T04:08:54.482Z,97.62
2018-09-05T04:11:24.270Z,97.77
2018-09-05T04:13:54.091Z,97.74
2018-09-05T04:16:23.840Z,97.82
2018-09-05T04:18:53.901Z,97.76
2018-09-05T04:21:23.635Z,97.88
2018-09-05T04:23:53.470Z,97.82
2018-09-05T04:26:23.421Z,97.49
2018-09-05T04:28:53.191Z,97.22
2018-09-05T04:31:22.999Z,97.76
2018-09-05T04:33:53.034Z,97.48
2018-09-05T04:36:25.117Z,97.70
2018-09-05T04:38:59.357Z,96.85
2018-09-05T04:41:33.710Z,96.75
2018-09-05T04:44:20.944Z,97.63
2018-09-05T04:47:03.185Z,97.33
2018-09-05T04:49:33.090Z,97.17
2018-09-05T04:52:03.310Z,97.07
2018-09-05T04:54:33.401Z,96.89
2018-09-05T04:57:06.121Z,96.76
2018-09-05T04:59:36.455Z,96.68
2018-09-05T05:02:06.635Z,96.75
2018-09-05T05:04:37.083Z,97.06
2018-09-05T05:07:07.175Z,97.38
2018-09-05T05:09:37.062Z,97.35
2018-09-05T05:12:06.876Z,97.56
2018-09-05T05:14:36.598Z,97.30
2018-09-05T05:17:06.494Z,97.29
2018-09-05T05:19:36.138Z,96.38
2018-09-05T05:22:05.926Z,97.16
2018-09-05T05:24:35.455Z,96.74
2018-09-05T05:27:05.247Z,96.48
2018-09-05T05:29:34.807Z,96.19
2018-09-05T05:32:04.487Z,95.79
2018-09-05T05:34:33.978Z,95.99
2018-09-05T05:37:03.794Z,96.40
2018-09-05T05:39:33.353Z,95.61
2018-09-05T05:42:04.257Z,95.50
2018-09-05T05:44:34.049Z,96.05
2018-09-05T05:47:05.062Z,95.34
2018-09-05T05:49:34.832Z,96.24
2018-09-05T05:52:04.549Z,95.14
2018-09-05T05:54:34.170Z,95.79
2018-09-05T05:57:03.812Z,95.25
2018-09-05T05:59:33.525Z,95.25
2018-09-05T06:02:04.038Z,95.27
2018-09-05T06:04:33.785Z,95.35
2018-09-05T06:07:03.544Z,95.48
2018-09-05T06:09:33.320Z,94.99
2018-09-05T06:12:03.045Z,94.67
2018-09-05T06:14:35.601Z,94.83
2018-09-05T06:17:05.362Z,93.96
2018-09-05T06:19:35.033Z,94.30
2018-09-05T06:22:04.793Z,93.44
2018-09-05T06:24:35.265Z,92.14
2018-09-05T06:27:05.103Z,88.29
2018-09-05T06:29:34.950Z,89.98
2018-09-05T06:32:04.609Z,88.62
2018-09-05T06:34:34.157Z,88.79
2018-09-05T06:37:03.636Z,88.07
2018-09-05T06:39:33.379Z,89.52
2018-09-05T06:42:03.080Z,87.25
2018-09-05T06:44:32.879Z,87.38
2018-09-05T06:47:02.813Z,86.70
2018-09-05T06:49:32.608Z,88.57
2018-09-05T06:52:02.300Z,87.94
2018-09-05T06:54:32.317Z,88.32
2018-09-05T06:57:01.895Z,87.68
2018-09-05T06:59:31.357Z,87.52
2018-09-05T07:02:01.024Z,86.95
2018-09-05T07:04:30.789Z,87.64
2018-09-05T07:07:00.279Z,87.67
2018-09-05T07:09:29.881Z,88.10
2018-09-05T07:11:59.467Z,86.21
2018-09-05T07:14:29.260Z,84.75
2018-09-05T07:16:58.844Z,85.57
2018-09-05T07:19:28.606Z,84.90
2018-09-05T07:21:58.374Z,83.03
2018-09-05T07:24:28.095Z,85.42
2018-09-05T07:26:57.667Z,84.02
2018-09-05T07:29:27.114Z,80.33
2018-09-05T07:31:56.537Z,83.58
2018-09-05T07:34:26.176Z,83.46
2018-09-05T07:36:55.855Z,80.73
2018-09-05T07:39:25.517Z,80.37
2018-09-05T07:41:55.196Z,82.58
2018-09-05T07:44:25.028Z,77.69
2018-09-05T07:46:54.591Z,77.29
2018-09-05T07:49:24.255Z,79.31
2018-09-05T07:51:54.032Z,79.27
2018-09-05T07:54:23.878Z,79.84
2018-09-05T07:56:53.667Z,76.73
2018-09-05T07:59:23.453Z,81.08
2018-09-05T08:01:53.346Z,76.09
2018-09-05T08:04:23.190Z,79.59
2018-09-05T08:06:52.881Z,77.91
2018-09-05T08:09:22.654Z,79.78
2018-09-05T08:11:52.553Z,79.08
2018-09-05T08:14:22.151Z,80.04
2018-09-05T08:16:51.708Z,80.26
2018-09-05T08:19:21.697Z,78.73
2018-09-05T08:21:51.294Z,78.76
2018-09-05T08:24:21.321Z,80.12
2018-09-05T08:26:50.697Z,77.00
2018-09-05T08:29:20.750Z,76.00
2018-09-05T08:31:51.113Z,79.60
2018-09-05T08:34:20.888Z,81.52
2018-09-05T08:36:50.869Z,81.04
2018-09-05T08:39:20.296Z,83.45
2018-09-05T08:41:49.994Z,82.24
2018-09-05T08:44:19.680Z,82.71
2018-09-05T08:46:49.330Z,80.80
2018-09-05T08:49:18.886Z,82.33
2018-09-05T08:51:48.403Z,79.77
2018-09-05T08:54:18.068Z,76.19
2018-09-05T08:56:47.767Z,68.96
2018-09-05T08:59:17.406Z,65.28
2018-09-05T09:01:47.117Z,59.11
2018-09-05T09:04:17.091Z,55.45
2018-09-05T09:06:46.811Z,60.91
2018-09-05T09:09:16.472Z,52.67
2018-09-05T09:11:46.081Z,51.97
2018-09-05T09:14:15.884Z,54.64
2018-09-05T09:16:45.848Z,54.37
2018-09-05T09:19:15.772Z,58.98
2018-09-05T09:21:45.362Z,52.16
2018-09-05T09:24:15.392Z,51.62
2018-09-05T09:26:45.196Z,49.60
2018-09-05T09:29:15.034Z,52.67
2018-09-05T09:31:44.747Z,51.13
2018-09-05T09:34:14.553Z,62.73
2018-09-05T09:36:44.339Z,54.63
2018-09-05T09:39:14.056Z,52.75
2018-09-05T09:41:43.959Z,54.56
2018-09-05T09:44:14.637Z,48.66
2018-09-05T09:46:45.264Z,52.81
2018-09-05T09:49:14.952Z,52.83
2018-09-05T09:51:44.778Z,49.85
2018-09-05T09:54:14.652Z,52.74
2018-09-05T09:56:44.332Z,49.07
2018-09-05T09:59:14.561Z,51.13
2018-09-05T10:01:49.204Z,48.49
2018-09-05T10:06:26.542Z,49.11
2018-09-05T10:09:01.266Z,46.90
2018-09-05T10:11:35.989Z,47.62
2018-09-05T10:14:10.833Z,48.44
2018-09-05T10:17:45.469Z,50.78
2018-09-05T10:20:15.416Z,46.83
2018-09-05T10:22:45.289Z,46.78
2018-09-05T10:25:15.340Z,46.72
2018-09-05T10:27:45.715Z,48.14
2018-09-05T10:30:15.510Z,45.11
2018-09-05T10:32:45.537Z,47.78
2018-09-05T10:35:15.694Z,43.34
2018-09-05T10:37:45.357Z,48.74
2018-09-05T10:40:15.129Z,48.33
2018-09-05T10:42:44.866Z,41.81
2018-09-05T10:45:14.965Z,43.90
2018-09-05T10:47:45.692Z,41.10
2018-09-05T10:50:15.772Z,49.01
2018-09-05T10:52:45.921Z,45.25
2018-09-05T10:55:15.654Z,43.83
2018-09-05T10:57:45.361Z,41.69
2018-09-05T11:00:15.164Z,43.81
2018-09-05T11:02:44.889Z,44.56
2018-09-05T11:05:14.636Z,43.50
2018-09-05T11:07:44.397Z,45.75
2018-09-05T11:10:14.174Z,45.17
2018-09-05T11:12:44.415Z,45.52
2018-09-05T11:15:14.166Z,44.81
2018-09-05T11:17:43.762Z,42.34
2018-09-05T11:20:14.193Z,43.97
2018-09-05T11:22:43.934Z,46.42
2018-09-05T11:25:13.689Z,43.91
2018-09-05T11:27:43.487Z,39.75
2018-09-05T11:30:13.608Z,38.95
2018-09-05T11:32:43.375Z,39.49
2018-09-05T11:35:13.067Z,40.23
2018-09-05T11:37:42.815Z,44.14
2018-09-05T11:40:12.604Z,43.15
2018-09-05T11:42:42.349Z,38.83
2018-09-05T11:45:12.195Z,42.57
2018-09-05T11:47:41.875Z,43.02
2018-09-05T11:50:11.649Z,41.85
2018-09-05T11:52:41.619Z,42.75
2018-09-05T11:55:11.696Z,46.49
2018-09-05T11:57:41.585Z,42.25
2018-09-05T12:00:11.362Z,42.57
2018-09-05T12:02:41.046Z,41.70
2018-09-05T12:05:10.815Z,42.66
2018-09-05T12:07:40.565Z,45.24
2018-09-05T12:10:10.409Z,40.30
2018-09-05T12:12:40.163Z,41.67
2018-09-05T12:15:09.956Z,42.21
2018-09-05T12:17:39.611Z,44.68
2018-09-05T12:20:09.361Z,43.84
2018-09-05T12:22:39.174Z,39.64
2018-09-05T12:25:09.191Z,42.83
2018-09-05T12:27:38.892Z,41.43
2018-09-05T12:30:08.798Z,42.43
2018-09-05T12:32:38.655Z,42.69
2018-09-05T12:35:10.128Z,44.02
2018-09-05T12:37:39.899Z,38.27
2018-09-05T12:40:09.768Z,41.41
2018-09-05T12:42:39.446Z,37.72
2018-09-05T12:45:09.245Z,41.25
2018-09-05T12:47:38.938Z,40.95
2018-09-05T12:50:08.727Z,39.51
2018-09-05T12:52:38.491Z,43.32
2018-09-05T12:55:08.429Z,41.19
2018-09-05T12:57:38.028Z,39.05
2018-09-05T13:00:08.074Z,45.05
2018-09-05T13:02:38.483Z,41.85
2018-09-05T13:05:08.378Z,43.25
2018-09-05T13:07:37.995Z,46.33
2018-09-05T13:10:09.704Z,39.73
2018-09-05T13:12:40.165Z,40.25
2018-09-05T13:15:09.906Z,40.61
2018-09-05T13:17:39.768Z,43.55
2018-09-05T13:20:09.685Z,39.72
2018-09-05T13:22:40.195Z,39.72
2018-09-05T13:25:10.098Z,42.03
2018-09-05T13:27:39.838Z,40.77
2018-09-05T13:30:10.083Z,43.71
2018-09-05T13:32:39.913Z,46.65
2018-09-05T13:35:10.662Z,44.04
2018-09-05T13:37:40.332Z,38.96
2018-09-05T13:40:10.489Z,40.51
2018-09-05T13:42:40.128Z,39.03
2018-09-05T13:45:09.888Z,41.28
2018-09-05T13:47:39.600Z,41.91
2018-09-05T13:50:09.480Z,42.34
2018-09-05T13:52:40.086Z,40.68
2018-09-05T13:55:10.005Z,41.18
2018-09-05T13:57:39.640Z,44.82
2018-09-05T14:00:13.379Z,42.15
2018-09-05T14:02:43.405Z,40.83
2018-09-05T14:05:13.908Z,39.83
2018-09-05T14:07:44.131Z,41.05
2018-09-05T14:10:16.416Z,40.72
2018-09-05T14:12:47.191Z,43.71
2018-09-05T14:15:17.052Z,42.06
2018-09-05T14:17:46.806Z,41.70
2018-09-05T14:20:16.796Z,44.73
2018-09-05T14:22:46.960Z,43.01
2018-09-05T14:25:16.576Z,43.94
2018-09-05T14:27:46.338Z,41.37
2018-09-05T14:30:16.314Z,44.37
2018-09-05T14:32:46.150Z,42.64
2018-09-05T14:35:15.915Z,46.29
2018-09-05T14:37:46.502Z,48.04
2018-09-05T14:40:17.051Z,45.75
2018-09-05T14:42:47.488Z,43.09
2018-09-05T14:45:17.373Z,48.76
2018-09-05T14:47:47.280Z,44.97
2018-09-05T14:50:16.914Z,42.39
2018-09-05T14:52:46.570Z,43.90
2018-09-05T14:55:16.586Z,43.00
2018-09-05T14:57:46.311Z,44.18
2018-09-05T15:00:16.014Z,41.67
2018-09-05T15:02:45.853Z,45.98
2018-09-05T15:05:16.151Z,39.79
2018-09-05T15:07:48.632Z,41.61
2018-09-05T15:10:19.104Z,45.89
2018-09-05T15:12:48.732Z,42.01
2018-09-05T15:15:18.390Z,45.66
2018-09-05T15:17:48.650Z,47.79
2018-09-05T15:20:19.487Z,50.72
2018-09-05T15:22:49.103Z,51.47
2018-09-05T15:25:19.707Z,53.91
2018-09-05T15:27:49.522Z,56.36
2018-09-05T15:30:19.278Z,57.37
2018-09-05T15:32:49.125Z,58.20
2018-09-05T15:35:18.805Z,59.95
2018-09-05T15:37:48.575Z,58.74
2018-09-05T15:40:19.267Z,56.68
2018-09-05T15:42:49.047Z,62.98
2018-09-05T15:45:19.764Z,64.92
2018-09-05T15:47:49.544Z,66.97
2018-09-05T15:50:20.351Z,69.07
2018-09-05T15:52:51.141Z,70.54
2018-09-05T15:55:22.500Z,72.03
2018-09-05T15:57:52.136Z,73.24
2018-09-05T16:00:23.452Z,73.90
2018-09-05T16:02:53.224Z,75.75
2018-09-05T16:05:22.989Z,73.98
2018-09-05T16:07:52.718Z,74.80
2018-09-05T16:10:22.480Z,75.10
2018-09-05T16:12:52.461Z,76.28
2018-09-05T16:15:22.950Z,78.23
2018-09-05T16:17:52.807Z,78.70
2018-09-05T16:20:22.979Z,79.65
2018-09-05T16:22:52.750Z,80.90
2018-09-05T16:25:23.283Z,81.39
2018-09-05T16:27:54.009Z,80.29
2018-09-05T16:30:24.725Z,79.16
2018-09-05T16:32:55.148Z,79.39
2018-09-05T16:35:25.912Z,79.10
2018-09-05T16:37:57.228Z,80.14
2018-09-05T16:40:26.910Z,80.73
2018-09-05T16:42:57.124Z,80.50
2018-09-05T16:45:26.994Z,81.60
2018-09-05T16:47:58.873Z,83.90
2018-09-05T16:50:29.896Z,84.56
2018-09-05T16:53:00.610Z,86.14
2018-09-05T16:55:30.987Z,85.80
2018-09-05T16:58:00.742Z,84.34
2018-09-05T17:00:31.430Z,84.63
2018-09-05T17:03:01.436Z,84.77
2018-09-05T17:05:31.287Z,86.69
2018-09-05T17:08:02.647Z,86.27
2018-09-05T17:10:32.521Z,86.34
2018-09-05T17:13:03.239Z,87.71
2018-09-05T17:15:33.109Z,87.40
2018-09-05T17:18:03.154Z,87.17
2018-09-05T17:20:32.842Z,88.02
2018-09-05T17:23:04.500Z,88.25
2018-09-05T17:25:34.366Z,88.82
2018-09-05T17:28:04.237Z,89.16
2018-09-05T17:30:38.173Z,89.90
2018-09-05T17:33:08.246Z,88.64
2018-09-05T17:35:38.014Z,88.75
2018-09-05T17:38:07.993Z,89.59
2018-09-05T17:40:37.993Z,91.21
2018-09-05T17:43:08.954Z,90.40
2018-09-05T17:45:38.836Z,91.28
2018-09-05T17:48:08.510Z,91.70
2018-09-05T17:50:38.875Z,90.85
2018-09-05T17:53:08.543Z,91.91
2018-09-05T17:55:38.325Z,92.08
2018-09-05T17:58:09.027Z,91.94
2018-09-05T18:00:42.697Z,91.41
2018-09-05T18:03:12.729Z,90.55
2018-09-05T18:05:42.503Z,90.09
2018-09-05T18:08:13.349Z,90.79
2018-09-05T18:10:43.613Z,91.91
2018-09-05T18:13:13.375Z,91.75
2018-09-05T18:15:44.242Z,92.26
2018-09-05T18:18:13.699Z,93.07
2018-09-05T18:20:47.191Z,92.13
2018-09-05T18:23:17.779Z,91.39
2018-09-05T18:25:50.168Z,92.27
2018-09-05T18:28:20.882Z,93.11
2018-09-05T18:30:50.637Z,93.63
2018-09-05T18:33:23.948Z,94.18
2018-09-05T18:35:53.924Z,93.51
2018-09-05T18:38:25.015Z,93.50
2018-09-05T18:40:56.716Z,94.69
2018-09-05T18:43:26.380Z,94.65
2018-09-05T18:45:57.054Z,94.38
2018-09-05T18:48:26.647Z,94.42
2018-09-05T18:50:59.545Z,94.08
2018-09-05T18:53:52.698Z,93.32
2018-09-05T18:56:24.917Z,93.23
2018-09-05T18:59:00.218Z,93.40
2018-09-05T19:01:31.316Z,93.60
2018-09-05T19:04:02.297Z,94.11
2018-09-05T19:06:38.993Z,93.25
2018-09-05T19:09:15.044Z,93.17
2018-09-05T19:11:50.557Z,92.45
2018-09-05T19:14:21.354Z,92.10
2018-09-05T19:16:53.759Z,92.86
2018-09-05T19:19:25.221Z,91.88
2018-09-05T19:25:06.016Z,92.63
2018-09-05T19:27:37.389Z,93.14
2018-09-05T19:30:09.088Z,93.72
2018-09-05T19:32:39.896Z,94.14
2018-09-05T19:35:10.058Z,95.10
2018-09-05T19:37:41.753Z,95.18
2018-09-05T19:40:12.126Z,93.76
2018-09-05T19:42:41.690Z,93.72
2018-09-05T19:45:12.708Z,93.70
2018-09-05T19:47:44.756Z,94.60
2018-09-05T19:50:16.219Z,94.39
2018-09-05T19:52:46.649Z,93.51
2018-09-05T19:55:17.609Z,93.92
2018-09-05T19:57:48.618Z,93.22
2018-09-05T20:00:29.623Z,93.46
2018-09-05T20:02:59.412Z,93.43
2018-09-05T20:05:32.530Z,93.19
2018-09-05T20:08:02.298Z,93.15
2018-09-05T20:10:33.257Z,93.96
2018-09-05T20:13:04.562Z,93.74
2018-09-05T20:15:35.166Z,93.80
2018-09-05T20:18:11.132Z,93.76
2018-09-05T20:20:40.886Z,94.51
2018-09-05T20:23:11.135Z,94.61
2018-09-05T20:25:40.965Z,94.66
2018-09-05T20:28:12.796Z,94.35
2018-09-05T20:30:42.485Z,94.86
2018-09-05T20:33:18.956Z,94.62
2018-09-05T20:35:48.933Z,95.13
2018-09-05T20:38:19.892Z,95.62
2018-09-05T20:40:50.290Z,95.78
2018-09-05T20:43:22.801Z,95.39
2018-09-05T20:45:54.035Z,95.63
2018-09-05T20:48:23.536Z,95.11
2018-09-05T20:50:54.023Z,95.22
2018-09-05T20:53:24.875Z,94.88
2018-09-05T20:55:54.526Z,95.37
2018-09-05T20:58:26.141Z,95.71
2018-09-05T21:00:57.504Z,95.90
2018-09-05T21:03:28.688Z,96.41
2018-09-05T21:06:02.386Z,95.92
2018-09-05T21:08:33.489Z,96.42
2018-09-05T21:11:03.373Z,95.78
2018-09-05T21:13:34.172Z,95.85
2018-09-05T21:16:06.147Z,95.27
2018-09-05T21:18:36.438Z,95.70
2018-09-05T21:21:08.234Z,95.75
2018-09-05T21:23:37.974Z,95.69
2018-09-05T21:26:07.730Z,94.85
2018-09-05T21:28:37.679Z,95.90
2018-09-05T21:31:07.764Z,95.26
2018-09-05T21:33:37.330Z,95.68
2018-09-05T21:36:07.524Z,95.47
2018-09-05T21:38:37.267Z,95.04
2018-09-05T21:41:08.861Z,95.33
2018-09-05T21:43:38.645Z,94.43
2018-09-05T21:46:08.749Z,94.04
2018-09-05T21:48:38.319Z,94.21
2018-09-05T21:51:08.238Z,93.41
2018-09-05T21:53:37.846Z,93.55
2018-09-05T21:56:08.375Z,92.81
2018-09-05T21:58:37.917Z,93.89
2018-09-05T22:01:08.000Z,93.03
2018-09-05T22:03:37.443Z,93.75
2018-09-05T22:06:07.220Z,93.76
2018-09-05T22:08:36.864Z,94.30
2018-09-05T22:11:11.491Z,94.12
2018-09-05T22:13:41.248Z,94.06
2018-09-05T22:16:10.935Z,94.47
2018-09-05T22:18:40.711Z,94.27
2018-09-05T22:21:10.255Z,93.81
2018-09-05T22:23:39.888Z,94.17
2018-09-05T22:26:09.462Z,93.36
2018-09-05T22:28:39.297Z,93.65
2018-09-05T22:31:08.936Z,93.42
2018-09-05T22:33:38.658Z,93.25
2018-09-05T22:36:08.388Z,93.66
2018-09-05T22:38:38.006Z,93.40
2018-09-05T22:41:07.977Z,93.69
2018-09-05T22:43:48.282Z,93.63
2018-09-05T22:46:28.554Z,92.47
2018-09-05T22:49:11.531Z,92.79
2018-09-05T22:51:55.342Z,93.84
2018-09-05T22:55:16.660Z,93.28
2018-09-05T23:00:30.024Z,92.67
2018-09-05T23:03:18.004Z,93.57
2018-09-05T23:11:56.865Z,92.26
2018-09-05T23:15:35.767Z,92.45
2018-09-05T23:18:27.408Z,92.89
2018-09-05T23:21:28.343Z,93.64
2018-09-05T23:24:01.882Z,93.76
2018-09-05T23:26:31.601Z,93.22
2018-09-05T23:29:01.422Z,94.06
2018-09-05T23:31:31.274Z,94.28
2018-09-05T23:34:01.024Z,95.61
2018-09-05T23:36:30.636Z,95.62
2018-09-05T23:39:00.330Z,95.53
2018-09-05T23:41:30.012Z,94.94
2018-09-05T23:43:59.603Z,95.28
2018-09-05T23:46:29.203Z,95.37
2018-09-05T23:48:58.707Z,96.09
2018-09-05T23:51:28.576Z,94.63
2018-09-05T23:53:58.269Z,94.56
2018-09-05T23:56:28.755Z,94.36
2018-09-05T23:58:58.486Z,94.24
